Terminal Aerodrome Forecast
Issued by NWS

Home | Current Version | Previous Version | Text Only | Print | Product List | Glossary On
Versions: 1 2 3 4 5 6 7 8 9 10 11 12 13 14 15 16 17 18 19 20 21 22 23 24
000
FTUS45 KBOI 220639 AAA
TAFMYL
TAF AMD
KMYL 220639Z 2207/2306 VRB03KT 2SM -SN BR BKN007 OVC025
     FM220900 VRB03KT 1/2SM SN FZFG OVC003
     FM221600 VRB03KT 2SM -SN BR OVC015
     FM222000 VRB06KT 5SM -SHSN BR OVC030
     FM230000 VRB05KT P6SM BKN040=

USA.gov is the U.S. government's official web portal to all federal, state and local government web resources and services.